LHBC 120645Z 10007KT CAVOK 10/05 Q1012        

LHBP 121000Z 09007KT 9999 -RA SCT046 OVC078 09/06 Q1011 NOSIG        

LHDC 120945Z AUTO 08008KT CAVOK 14/07 Q1012 NOSIG        

LHKE 120945Z 05004KT 3000 -RA BR SCT050 OVC083 07/06 Q1011 TEMPO 5000 RMK YLO        

LHPA 120956Z 00000KT 8000 -RA SCT050 BKN083 OVC200 09/07 Q1009 RMK BLU        

LHPP 120945Z 07008KT 6000 FEW013 OVC083 08/08 Q1008 RERA        

LHPR 120945Z 12011KT 8000 -RA FEW040 BKN046 OVC083 09/06 Q1010 RERA        

LHSM 120945Z AUTO 09008KT 050V120 4500 -RA BR BKN006 BKN062 08/07 Q1009 NOSIG        

LHSN 120945Z 07008KT 9999 -RA BKN050 OVC083 09/07 Q1011 TEMPO 6000 -RA RMK BLU